Time;durP1;ratioP1;P1;durP2;ratioP2;P2;SDS_P1;SDS_P2;PMS_P1;PMS_P2;Temp;Humidity;BMP_temperature;BMP_pressure;BME280_temperature;BME280_humidity;BME280_pressure;Samples;Min_cycle;Max_cycle;Signal;HPM_P1;HPM_P2
2022/03/01 00:00:04;;;;;;;5.10;3.10;;;8.60;99.90;;;;;;5011525;28;20190;-67
2022/03/01 00:02:30;;;;;;;6.63;3.60;;;8.90;99.90;;;;;;5011604;28;20233;-68
2022/03/01 00:04:56;;;;;;;5.80;4.03;;;8.30;99.90;;;;;;5010230;28;20192;-68
2022/03/01 00:07:24;;;;;;;5.47;3.80;;;8.60;99.90;;;;;;5010080;28;20190;-69
2022/03/01 00:09:50;;;;;;;6.00;3.13;;;8.50;99.90;;;;;;5010796;28;20190;-67
2022/03/01 00:12:15;;;;;;;4.67;3.30;;;8.30;99.90;;;;;;5011060;28;20182;-67
2022/03/01 00:14:41;;;;;;;9.00;3.97;;;8.50;99.90;;;;;;5010760;28;20233;-67
2022/03/01 00:17:07;;;;;;;7.17;4.17;;;8.50;99.90;;;;;;5011486;28;20174;-67
2022/03/01 00:19:33;;;;;;;8.17;4.23;;;8.50;99.90;;;;;;5011614;28;20181;-68
2022/03/01 00:21:59;;;;;;;7.43;4.10;;;8.40;99.90;;;;;;5011536;28;20552;-68
2022/03/01 00:24:24;;;;;;;6.57;3.93;;;8.50;99.90;;;;;;5009381;28;20253;-68
2022/03/01 00:26:51;;;;;;;8.97;4.30;;;8.40;99.90;;;;;;5009867;28;20336;-68
2022/03/01 00:29:16;;;;;;;7.20;4.20;;;8.50;99.90;;;;;;5010563;28;20171;-68
2022/03/01 00:31:42;;;;;;;10.27;4.37;;;8.40;99.90;;;;;;5011472;28;20182;-68
2022/03/01 00:34:08;;;;;;;9.33;4.50;;;8.30;99.90;;;;;;5011129;28;20175;-70
2022/03/01 00:36:36;;;;;;;12.47;4.83;;;8.30;99.90;;;;;;5011253;28;20177;-70
2022/03/01 00:39:06;;;;;;;7.07;4.57;;;8.30;99.90;;;;;;5011370;28;20174;-69
2022/03/01 00:41:33;;;;;;;9.83;4.60;;;8.30;99.90;;;;;;5011283;28;20182;-70
2022/03/01 00:43:59;;;;;;;10.07;4.57;;;8.30;99.90;;;;;;5011296;28;20174;-68
2022/03/01 00:46:26;;;;;;;9.57;4.40;;;8.20;99.90;;;;;;5010757;28;20241;-69
2022/03/01 00:48:58;;;;;;;10.80;4.67;;;8.10;99.90;;;;;;5011460;28;20184;-69
2022/03/01 00:51:26;;;;;;;10.53;4.67;;;7.70;99.90;;;;;;4990384;28;20179;-68
2022/03/01 00:53:53;;;;;;;13.50;5.10;;;8.10;99.90;;;;;;5006798;28;20179;-68
2022/03/01 00:56:19;;;;;;;12.53;5.97;;;8.30;99.90;;;;;;5010235;28;20177;-69
2022/03/01 00:58:44;;;;;;;11.37;5.90;;;8.10;99.90;;;;;;5010951;28;20171;-68
2022/03/01 01:01:10;;;;;;;13.67;7.10;;;8.10;99.90;;;;;;5010295;28;20215;-69
2022/03/01 01:03:36;;;;;;;12.23;7.13;;;8.10;99.90;;;;;;5010355;28;20179;-69
2022/03/01 01:06:03;;;;;;;11.53;7.10;;;8.20;99.90;;;;;;5010854;28;20234;-68
2022/03/01 01:08:28;;;;;;;12.10;7.17;;;8.10;99.90;;;;;;5010128;28;20257;-68
2022/03/01 01:10:54;;;;;;;17.97;7.70;;;8.10;99.90;;;;;;5008819;28;20277;-68
2022/03/01 01:13:20;;;;;;;14.87;7.60;;;8.10;99.90;;;;;;5008881;28;20175;-68
2022/03/01 01:15:46;;;;;;;15.93;7.70;;;8.10;99.90;;;;;;5009150;28;20178;-69
2022/03/01 01:18:12;;;;;;;16.47;7.63;;;8.10;99.90;;;;;;5009300;28;20187;-68
2022/03/01 01:20:38;;;;;;;14.60;7.40;;;8.10;99.90;;;;;;5010499;28;20209;-68
2022/03/01 01:23:05;;;;;;;15.77;7.60;;;8.10;99.90;;;;;;5010653;28;20190;-68
2022/03/01 01:25:31;;;;;;;12.73;6.37;;;8.10;99.90;;;;;;5010518;28;20707;-69
2022/03/01 01:27:59;;;;;;;15.53;7.60;;;8.10;99.90;;;;;;5009398;28;20184;-68
2022/03/01 01:30:30;;;;;;;17.37;7.13;;;8.10;99.90;;;;;;5010653;28;20178;-69
2022/03/01 01:32:56;;;;;;;15.03;6.73;;;8.00;99.90;;;;;;5010382;28;20197;-68
2022/03/01 01:35:24;;;;;;;14.87;6.27;;;8.10;99.90;;;;;;5010401;28;20641;-68
2022/03/01 01:37:50;;;;;;;15.27;6.40;;;8.10;99.90;;;;;;5010403;28;20217;-68
2022/03/01 01:40:20;;;;;;;13.67;6.57;;;8.00;99.90;;;;;;5009655;28;20205;-68
2022/03/01 01:42:46;;;;;;;14.23;6.27;;;8.00;99.90;;;;;;5013058;28;20301;-68
2022/03/01 01:45:12;;;;;;;15.30;6.40;;;6.00;99.90;;;;;;5014444;28;20671;-68
2022/03/01 01:47:39;;;;;;;17.83;6.57;;;8.00;99.90;;;;;;5014252;28;20182;-68
2022/03/01 01:50:06;;;;;;;15.47;5.97;;;8.00;99.90;;;;;;5014603;28;20189;-68
2022/03/01 01:52:32;;;;;;;10.17;5.97;;;8.00;99.90;;;;;;5014421;28;20178;-65
2022/03/01 01:54:58;;;;;;;15.57;6.07;;;7.90;99.90;;;;;;5013989;28;20300;-65
2022/03/01 01:57:25;;;;;;;13.87;6.17;;;7.90;99.90;;;;;;5014110;28;20182;-64
2022/03/01 01:59:53;;;;;;;13.33;5.60;;;7.80;99.90;;;;;;5013654;28;20402;-67
2022/03/01 02:02:21;;;;;;;13.47;5.73;;;7.90;99.90;;;;;;5013714;28;20268;-65
2022/03/01 02:04:46;;;;;;;11.37;5.60;;;7.80;99.90;;;;;;5013725;28;20637;-65
2022/03/01 02:07:13;;;;;;;18.23;5.90;;;7.80;99.90;;;;;;5013988;28;20225;-64
2022/03/01 02:09:39;;;;;;;15.97;5.03;;;7.70;99.90;;;;;;5014033;28;20727;-63
2022/03/01 02:12:05;;;;;;;14.97;5.80;;;7.70;99.90;;;;;;5014492;28;20189;-64
2022/03/01 02:14:32;;;;;;;13.63;5.80;;;7.70;99.90;;;;;;5013814;28;20209;-64
2022/03/01 02:17:04;;;;;;;12.77;5.63;;;7.60;99.90;;;;;;5013974;28;20257;-65
2022/03/01 02:19:31;;;;;;;13.17;5.17;;;7.70;99.90;;;;;;5013970;28;20178;-65
2022/03/01 02:21:57;;;;;;;20.23;5.63;;;7.60;99.90;;;;;;5014015;28;20653;-65
2022/03/01 02:24:28;;;;;;;14.77;6.20;;;7.50;99.90;;;;;;5013942;28;20224;-65
2022/03/01 02:26:58;;;;;;;17.17;5.63;;;7.50;99.90;;;;;;5013847;28;20298;-65
2022/03/01 02:29:25;;;;;;;15.63;5.77;;;7.50;99.90;;;;;;5013480;28;20525;-65
2022/03/01 02:31:52;;;;;;;13.77;5.80;;;7.30;99.90;;;;;;5013816;28;20171;-65
2022/03/01 02:34:18;;;;;;;18.03;6.10;;;7.40;99.90;;;;;;5013779;28;20178;-65
2022/03/01 02:36:45;;;;;;;13.27;5.47;;;7.40;99.90;;;;;;5013435;28;20262;-65
2022/03/01 02:39:11;;;;;;;15.03;5.67;;;7.40;99.90;;;;;;4999628;28;20170;-65
2022/03/01 02:41:41;;;;;;;17.50;5.50;;;7.30;99.90;;;;;;5013281;28;20178;-65
2022/03/01 02:44:08;;;;;;;11.63;5.07;;;7.30;99.90;;;;;;5013375;28;20175;-65
2022/03/01 02:46:34;;;;;;;12.87;5.03;;;7.30;99.90;;;;;;5012116;28;20206;-65
2022/03/01 02:49:00;;;;;;;16.90;5.63;;;7.30;99.90;;;;;;5013537;28;20653;-65
2022/03/01 02:51:27;;;;;;;15.27;5.30;;;7.30;99.90;;;;;;5013580;28;20301;-64
2022/03/01 02:53:53;;;;;;;17.70;5.57;;;7.20;99.90;;;;;;5013009;28;20175;-64
2022/03/01 02:56:18;;;;;;;20.77;5.23;;;7.20;99.90;;;;;;5012521;28;20179;-64
2022/03/01 02:58:44;;;;;;;21.47;5.90;;;7.10;99.90;;;;;;5012937;28;20556;-64
2022/03/01 03:01:09;;;;;;;16.10;5.50;;;7.10;99.90;;;;;;5010509;28;20292;-63
2022/03/01 03:03:35;;;;;;;22.03;5.47;;;7.20;99.90;;;;;;5011826;28;20194;-63
2022/03/01 03:06:01;;;;;;;12.83;5.37;;;7.10;99.90;;;;;;5009386;28;20210;-63
2022/03/01 03:08:27;;;;;;;13.60;5.33;;;7.10;99.90;;;;;;5013197;28;20260;-62
2022/03/01 03:10:53;;;;;;;20.87;5.43;;;7.10;99.90;;;;;;5013067;28;20273;-62
2022/03/01 03:13:20;;;;;;;15.67;5.10;;;7.20;99.90;;;;;;5011975;28;20170;-62
2022/03/01 03:15:46;;;;;;;19.67;5.50;;;7.10;99.90;;;;;;5012363;28;20221;-62
2022/03/01 03:18:13;;;;;;;18.77;5.87;;;8.00;99.90;;;;;;4998092;28;20209;-62
2022/03/01 03:20:38;;;;;;;18.20;5.27;;;7.10;99.90;;;;;;5012752;28;20203;-63
2022/03/01 03:23:05;;;;;;;23.77;5.30;;;7.00;99.90;;;;;;5012993;28;20333;-63
2022/03/01 03:25:31;;;;;;;20.40;5.27;;;7.00;99.90;;;;;;5012640;28;20207;-62
2022/03/01 03:27:57;;;;;;;17.80;5.03;;;7.10;99.90;;;;;;5012362;28;20186;-63
2022/03/01 03:30:23;;;;;;;16.40;4.53;;;;;;;;;;5012315;28;20201;-62
2022/03/01 03:32:49;;;;;;;18.47;5.33;;;7.00;99.90;;;;;;5012710;28;20725;-62
2022/03/01 03:35:14;;;;;;;15.30;4.83;;;7.00;99.90;;;;;;5012350;28;20266;-63
2022/03/01 03:37:40;;;;;;;22.60;4.80;;;7.10;99.90;;;;;;5012590;28;20167;-63
2022/03/01 03:40:06;;;;;;;18.47;4.93;;;7.00;99.90;;;;;;5012393;28;20170;-63
2022/03/01 03:42:33;;;;;;;18.73;4.60;;;7.00;99.90;;;;;;5012704;28;20198;-62
2022/03/01 03:44:59;;;;;;;19.10;4.93;;;7.00;99.90;;;;;;5012364;28;20206;-62
2022/03/01 03:47:25;;;;;;;18.33;4.50;;;7.00;99.90;;;;;;5005326;28;20194;-62
2022/03/01 03:49:50;;;;;;;15.47;4.60;;;7.00;99.90;;;;;;5012366;28;20185;-62
2022/03/01 03:52:16;;;;;;;17.37;4.53;;;6.90;99.90;;;;;;5012041;28;20582;-61
2022/03/01 03:54:42;;;;;;;19.47;5.03;;;6.90;99.90;;;;;;5012420;28;20193;-61
2022/03/01 03:57:08;;;;;;;16.40;4.27;;;6.90;99.90;;;;;;5011730;28;20170;-61
2022/03/01 03:59:38;;;;;;;22.57;4.87;;;6.90;99.90;;;;;;5011908;28;20191;-62
2022/03/01 04:02:06;;;;;;;24.77;4.83;;;6.80;99.90;;;;;;5012028;28;20224;-61
2022/03/01 04:04:32;;;;;;;23.30;4.40;;;6.80;99.90;;;;;;5011157;28;20553;-64
2022/03/01 04:06:57;;;;;;;25.37;5.17;;;6.80;99.90;;;;;;5010627;28;20207;-65
2022/03/01 04:09:23;;;;;;;22.37;4.70;;;6.90;99.90;;;;;;5011688;28;20189;-65
2022/03/01 04:11:49;;;;;;;21.20;4.23;;;6.80;99.90;;;;;;5012130;28;20170;-65
2022/03/01 04:14:17;;;;;;;28.23;4.50;;;6.80;99.90;;;;;;5008818;28;20200;-65
2022/03/01 04:16:44;;;;;;;20.53;4.00;;;6.90;99.90;;;;;;5019020;28;20224;-64
2022/03/01 04:19:10;;;;;;;23.20;4.27;;;6.80;99.90;;;;;;5027732;28;20521;-65
2022/03/01 04:21:36;;;;;;;19.97;5.10;;;6.90;99.90;;;;;;5011774;28;20174;-66
2022/03/01 04:24:03;;;;;;;27.17;4.77;;;6.80;99.90;;;;;;5011774;28;20274;-66
2022/03/01 04:26:28;;;;;;;23.03;4.70;;;6.90;99.90;;;;;;5011653;28;20272;-65
2022/03/01 04:28:54;;;;;;;24.80;4.33;;;6.80;99.90;;;;;;5011669;28;20163;-63
2022/03/01 04:31:20;;;;;;;26.13;4.87;;;6.80;99.90;;;;;;5011542;28;20537;-63
2022/03/01 04:33:46;;;;;;;25.70;4.37;;;6.80;99.90;;;;;;5011276;28;20285;-63
2022/03/01 04:36:13;;;;;;;24.73;4.90;;;6.90;99.90;;;;;;5011514;28;20179;-62
2022/03/01 04:38:38;;;;;;;26.70;5.17;;;6.90;99.90;;;;;;5011899;28;20178;-62
2022/03/01 04:41:04;;;;;;;32.13;5.97;;;6.90;99.90;;;;;;5010356;28;20823;-62
2022/03/01 04:43:30;;;;;;;27.90;5.07;;;6.90;99.90;;;;;;5011009;28;20213;-62
2022/03/01 04:45:56;;;;;;;29.80;6.47;;;6.90;99.90;;;;;;5011235;28;20677;-61
2022/03/01 04:48:23;;;;;;;28.77;5.27;;;6.80;99.90;;;;;;5011376;28;20189;-61
2022/03/01 04:50:50;;;;;;;16.20;5.07;;;6.80;99.90;;;;;;5011286;28;20183;-61
2022/03/01 04:53:15;;;;;;;24.13;5.10;;;7.00;99.90;;;;;;5011244;28;20646;-61
2022/03/01 04:55:41;;;;;;;34.07;5.93;;;6.80;99.90;;;;;;5010578;28;20269;-61
2022/03/01 04:58:07;;;;;;;28.03;5.60;;;6.60;99.90;;;;;;5010673;28;20178;-61
2022/03/01 05:00:33;;;;;;;26.27;5.60;;;;;;;;;;5011270;28;20186;-61
2022/03/01 05:02:59;;;;;;;26.40;6.00;;;6.60;99.90;;;;;;5011155;28;20657;-61
2022/03/01 05:05:24;;;;;;;23.07;6.00;;;6.70;99.90;;;;;;5010927;28;20292;-61
2022/03/01 05:07:51;;;;;;;31.40;6.73;;;6.70;99.90;;;;;;5010694;28;20198;-61
2022/03/01 05:10:19;;;;;;;24.40;6.10;;;6.80;99.90;;;;;;5009557;28;20175;-61
2022/03/01 05:12:53;;;;;;;25.47;5.40;;;6.70;99.90;;;;;;5011344;28;20214;-61
2022/03/01 05:15:21;;;;;;;32.63;6.13;;;6.80;99.90;;;;;;5010460;28;20177;-61
2022/03/01 05:17:47;;;;;;;35.27;6.60;;;6.80;99.90;;;;;;5011080;28;20253;-61
2022/03/01 05:20:15;;;;;;;31.33;6.37;;;7.40;99.90;;;;;;5010725;28;20532;-63
2022/03/01 05:22:41;;;;;;;29.67;7.37;;;6.80;99.90;;;;;;5010095;28;20297;-63
2022/03/01 05:25:09;;;;;;;29.80;7.03;;;6.80;99.90;;;;;;5009551;28;20178;-62
2022/03/01 05:27:37;;;;;;;23.80;6.57;;;6.70;99.90;;;;;;5011023;28;20645;-62
2022/03/01 05:30:04;;;;;;;32.10;6.50;;;7.00;99.90;;;;;;5010807;28;20257;-62
2022/03/01 05:32:29;;;;;;;27.10;7.23;;;6.70;99.90;;;;;;5010791;28;20217;-62
2022/03/01 05:34:55;;;;;;;28.03;7.00;;;6.70;99.90;;;;;;5010276;28;20186;-62
2022/03/01 05:37:21;;;;;;;29.17;7.13;;;6.70;99.90;;;;;;5010514;28;20178;-63
2022/03/01 05:39:46;;;;;;;22.53;7.03;;;6.70;99.90;;;;;;5009614;28;20185;-62
2022/03/01 05:42:12;;;;;;;36.23;8.20;;;6.70;99.90;;;;;;5010134;28;20637;-62
2022/03/01 05:44:38;;;;;;;27.60;7.57;;;6.70;99.90;;;;;;5010748;28;20174;-65
2022/03/01 05:47:04;;;;;;;36.50;8.07;;;6.70;99.90;;;;;;5010078;28;20209;-63
2022/03/01 05:49:29;;;;;;;29.60;8.00;;;6.70;99.90;;;;;;5008805;28;20183;-63
2022/03/01 05:51:55;;;;;;;29.90;7.30;;;6.70;99.90;;;;;;5010367;28;20209;-64
2022/03/01 05:54:21;;;;;;;31.47;7.53;;;6.80;99.90;;;;;;5010241;28;20530;-64
2022/03/01 05:56:46;;;;;;;34.17;8.90;;;6.80;99.90;;;;;;5010397;28;20607;-65
2022/03/01 05:59:12;;;;;;;35.40;9.07;;;6.90;99.90;;;;;;5010207;28;20572;-64
2022/03/01 06:01:38;;;;;;;33.10;8.73;;;6.80;99.90;;;;;;5009948;28;20305;-65
2022/03/01 06:04:03;;;;;;;35.47;8.30;;;6.90;99.90;;;;;;5010373;28;20181;-62
2022/03/01 06:06:30;;;;;;;28.03;8.23;;;7.00;99.90;;;;;;5007474;28;20755;-62
2022/03/01 06:08:55;;;;;;;35.20;9.37;;;7.00;99.90;;;;;;5008083;28;20186;-62
2022/03/01 06:11:21;;;;;;;29.93;10.00;;;7.00;99.90;;;;;;5010177;28;20171;-62
2022/03/01 06:13:47;;;;;;;32.83;9.23;;;7.00;99.90;;;;;;5010524;28;20253;-62
2022/03/01 06:16:12;;;;;;;36.53;8.50;;;7.00;99.90;;;;;;5010195;28;20174;-62
2022/03/01 06:18:38;;;;;;;30.60;9.43;;;7.10;99.90;;;;;;5010323;28;20167;-62
2022/03/01 06:21:04;;;;;;;29.60;9.90;;;7.10;99.90;;;;;;5010466;28;20183;-62
2022/03/01 06:23:31;;;;;;;26.93;9.47;;;7.20;99.90;;;;;;5010086;28;20174;-62
2022/03/01 06:25:57;;;;;;;35.47;10.30;;;7.30;99.90;;;;;;5008773;28;20701;-62
2022/03/01 06:28:22;;;;;;;36.00;10.20;;;7.20;99.90;;;;;;5012032;28;20205;-62
2022/03/01 06:30:48;;;;;;;31.17;11.20;;;7.20;99.90;;;;;;5014051;28;20668;-62
2022/03/01 06:33:14;;;;;;;26.83;9.87;;;7.20;99.90;;;;;;5013685;28;20265;-62
2022/03/01 06:35:39;;;;;;;26.77;11.07;;;7.20;99.90;;;;;;5001912;28;20202;-61
2022/03/01 06:38:05;;;;;;;31.63;11.40;;;7.20;99.90;;;;;;5013757;28;20636;-64
2022/03/01 06:40:31;;;;;;;43.23;12.23;;;7.30;99.90;;;;;;5011614;28;20189;-63
2022/03/01 06:42:57;;;;;;;38.03;12.30;;;7.20;99.90;;;;;;5013469;28;20206;-63
2022/03/01 06:45:23;;;;;;;45.77;12.30;;;7.30;99.90;;;;;;5013509;28;20207;-63
2022/03/01 06:47:49;;;;;;;36.77;11.97;;;7.30;99.90;;;;;;5013616;28;20201;-63
2022/03/01 06:50:15;;;;;;;37.57;12.30;;;7.30;99.90;;;;;;5012633;28;20629;-63
2022/03/01 06:52:41;;;;;;;41.13;12.17;;;7.20;99.90;;;;;;5013423;28;20174;-62
2022/03/01 06:55:09;;;;;;;36.27;13.00;;;7.20;99.90;;;;;;5013297;28;20269;-63
2022/03/01 06:57:40;;;;;;;43.60;13.00;;;7.30;99.90;;;;;;5013210;28;20178;-63
2022/03/01 07:00:08;;;;;;;41.17;12.90;;;7.30;99.90;;;;;;5012582;28;20198;-63
2022/03/01 07:02:38;;;;;;;43.20;13.87;;;7.30;99.90;;;;;;5013215;28;20241;-63
2022/03/01 07:05:09;;;;;;;41.70;12.57;;;7.30;99.90;;;;;;5011464;28;20171;-65
2022/03/01 07:07:36;;;;;;;35.57;13.10;;;8.50;99.90;;;;;;5010718;28;20189;-65
2022/03/01 07:10:03;;;;;;;35.80;11.70;;;7.30;99.90;;;;;;5009878;28;20209;-66
2022/03/01 07:12:29;;;;;;;31.37;12.33;;;7.30;99.90;;;;;;5011136;28;20254;-65
2022/03/01 07:14:54;;;;;;;38.73;12.97;;;7.30;99.90;;;;;;5011447;28;20736;-65
2022/03/01 07:17:20;;;;;;;31.47;11.87;;;7.40;99.90;;;;;;5012634;28;20175;-65
2022/03/01 07:19:46;;;;;;;33.90;12.07;;;7.40;99.90;;;;;;5012615;28;20189;-65
2022/03/01 07:22:12;;;;;;;36.90;11.90;;;8.40;99.90;;;;;;5012558;28;20182;-63
2022/03/01 07:24:37;;;;;;;36.87;11.60;;;7.50;99.90;;;;;;5012431;28;20183;-63
2022/03/01 07:27:03;;;;;;;31.93;11.77;;;7.50;99.90;;;;;;5012145;28;20260;-63
2022/03/01 07:29:30;;;;;;;41.10;11.77;;;7.50;99.90;;;;;;5011291;28;20171;-62
2022/03/01 07:31:57;;;;;;;33.87;11.57;;;7.50;99.90;;;;;;5009270;28;20177;-64
2022/03/01 07:34:23;;;;;;;34.90;12.13;;;7.60;99.90;;;;;;5010877;28;20511;-64
2022/03/01 07:36:49;;;;;;;32.63;12.03;;;7.60;99.90;;;;;;5012148;28;20204;-64
2022/03/01 07:39:15;;;;;;;35.27;12.37;;;7.60;99.90;;;;;;5011308;28;20638;-64
2022/03/01 07:41:41;;;;;;;32.20;11.13;;;7.60;99.90;;;;;;5010686;28;20171;-64
2022/03/01 07:44:07;;;;;;;31.43;11.07;;;7.60;99.90;;;;;;5010811;28;20649;-64
2022/03/01 07:46:32;;;;;;;32.47;11.63;;;7.60;99.90;;;;;;5012627;28;20215;-63
2022/03/01 07:48:58;;;;;;;37.37;14.33;;;7.60;99.90;;;;;;5011371;28;20644;-61
2022/03/01 07:51:24;;;;;;;34.00;11.57;;;7.70;99.90;;;;;;5011838;28;20753;-68
2022/03/01 07:53:51;;;;;;;25.80;11.43;;;7.70;99.90;;;;;;5011052;28;20178;-66
2022/03/01 07:56:20;;;;;;;31.60;11.50;;;7.70;99.90;;;;;;5011081;28;20174;-75
2022/03/01 07:58:46;;;;;;;27.97;11.40;;;7.70;99.90;;;;;;5009717;28;20297;-71
2022/03/01 08:01:12;;;;;;;30.20;10.33;;;7.80;99.90;;;;;;5010148;28;20261;-61
2022/03/01 08:03:38;;;;;;;23.90;11.07;;;7.80;99.90;;;;;;5012928;28;20179;-67
2022/03/01 08:06:05;;;;;;;27.17;10.50;;;7.80;99.90;;;;;;5021236;28;20291;-67
2022/03/01 08:08:30;;;;;;;25.60;10.43;;;8.00;99.90;;;;;;5008396;28;20809;-67
2022/03/01 08:10:57;;;;;;;27.27;10.70;;;8.00;99.90;;;;;;5008719;28;20182;-66
2022/03/01 08:13:24;;;;;;;29.43;10.43;;;8.00;99.90;;;;;;5011815;28;20266;-66
2022/03/01 08:15:50;;;;;;;24.37;10.63;;;8.00;99.90;;;;;;5011179;28;20190;-66
2022/03/01 08:18:16;;;;;;;24.67;10.40;;;;;;;;;;5009023;28;20182;-66
2022/03/01 08:20:42;;;;;;;26.00;10.73;;;8.10;99.90;;;;;;5017403;28;20183;-66
2022/03/01 08:23:07;;;;;;;25.70;9.97;;;8.10;99.90;;;;;;5011010;28;20634;-63
2022/03/01 08:25:33;;;;;;;19.47;9.47;;;8.10;99.90;;;;;;5010561;28;20213;-63
2022/03/01 08:28:00;;;;;;;20.43;9.30;;;8.20;99.90;;;;;;5010413;28;20185;-63
2022/03/01 08:30:27;;;;;;;22.77;9.73;;;8.20;99.90;;;;;;5011110;28;20174;-62
2022/03/01 08:32:53;;;;;;;24.00;9.00;;;8.30;99.90;;;;;;5010322;28;20203;-63
2022/03/01 08:35:19;;;;;;;27.53;9.13;;;8.30;99.90;;;;;;5009698;28;20182;-65
2022/03/01 08:37:45;;;;;;;20.40;9.93;;;8.40;99.90;;;;;;5010347;28;20186;-67
2022/03/01 08:40:13;;;;;;;20.57;8.40;;;8.40;99.90;;;;;;5010485;28;20177;-66
2022/03/01 08:42:39;;;;;;;23.90;9.50;;;8.40;99.90;;;;;;5009631;28;20276;-76
2022/03/01 08:45:06;;;;;;;21.63;9.07;;;8.30;99.90;;;;;;5009925;28;20181;-72
2022/03/01 08:47:32;;;;;;;20.23;8.30;;;8.40;99.90;;;;;;5009264;28;20183;-72
2022/03/01 08:49:59;;;;;;;23.03;8.87;;;8.30;99.90;;;;;;5009385;28;20579;-72
2022/03/01 08:52:26;;;;;;;27.33;9.33;;;8.40;99.90;;;;;;5011451;28;20193;-74
2022/03/01 08:54:52;;;;;;;18.57;8.63;;;8.50;99.90;;;;;;5010293;28;20182;-65
2022/03/01 08:57:18;;;;;;;20.83;9.40;;;8.50;99.90;;;;;;5009307;28;20205;-64
2022/03/01 08:59:44;;;;;;;20.73;8.83;;;8.60;99.90;;;;;;4989711;28;20286;-66
2022/03/01 09:02:09;;;;;;;24.60;9.37;;;8.60;99.90;;;;;;5011165;28;20627;-66
2022/03/01 09:04:36;;;;;;;19.77;9.40;;;8.70;99.90;;;;;;5029102;28;20166;-72
2022/03/01 09:07:04;;;;;;;23.47;8.30;;;8.70;99.90;;;;;;5016777;28;20300;-69
2022/03/01 09:09:31;;;;;;;20.40;9.13;;;8.60;99.90;;;;;;5020179;28;20174;-75
2022/03/01 09:11:57;;;;;;;25.70;9.73;;;8.70;99.90;;;;;;5010634;28;20189;-72
2022/03/01 09:14:23;;;;;;;23.20;9.53;;;8.70;99.90;;;;;;5009995;28;20170;-61
2022/03/01 09:16:49;;;;;;;20.47;9.10;;;;;;;;;;5009820;28;20204;-72
2022/03/01 09:19:16;;;;;;;21.20;8.80;;;10.60;99.90;;;;;;5009848;28;20214;-66
2022/03/01 09:21:42;;;;;;;22.43;8.90;;;8.60;99.90;;;;;;5009369;28;20257;-67
2022/03/01 09:24:08;;;;;;;20.13;8.97;;;8.70;99.90;;;;;;5009995;28;20171;-67
2022/03/01 09:26:34;;;;;;;24.93;8.93;;;8.60;99.90;;;;;;5009717;28;20740;-68
2022/03/01 09:29:00;;;;;;;24.00;9.10;;;8.60;99.90;;;;;;5008665;28;20174;-63
2022/03/01 09:31:26;;;;;;;25.47;9.10;;;8.60;99.90;;;;;;5008716;28;20213;-62
2022/03/01 09:33:51;;;;;;;23.80;8.97;;;8.70;99.90;;;;;;5009851;28;20178;-69
2022/03/01 09:36:17;;;;;;;24.37;10.07;;;8.70;99.90;;;;;;5009332;28;20189;-64
2022/03/01 09:38:44;;;;;;;27.33;10.40;;;8.40;99.90;;;;;;5009241;28;20171;-64
2022/03/01 09:41:11;;;;;;;23.93;9.13;;;8.60;99.90;;;;;;5009790;28;20225;-64
2022/03/01 09:43:39;;;;;;;30.37;10.33;;;8.70;99.90;;;;;;5009083;28;20180;-64
2022/03/01 09:46:07;;;;;;;25.33;10.53;;;8.30;99.90;;;;;;5009161;28;20210;-63
2022/03/01 09:48:33;;;;;;;26.30;9.83;;;8.60;99.90;;;;;;4992072;28;20183;-63
2022/03/01 09:51:01;;;;;;;30.03;10.37;;;8.60;99.90;;;;;;5009575;28;20170;-63
2022/03/01 09:53:27;;;;;;;29.17;9.93;;;8.60;99.90;;;;;;5008799;28;20194;-63
2022/03/01 09:55:54;;;;;;;29.23;9.33;;;8.30;99.90;;;;;;5006314;28;20245;-68
2022/03/01 09:58:20;;;;;;;24.30;10.37;;;8.50;99.90;;;;;;5008466;28;20166;-68
2022/03/01 10:00:47;;;;;;;24.63;8.90;;;8.50;99.90;;;;;;5009298;28;20175;-69
2022/03/01 10:03:18;;;;;;;23.83;9.20;;;8.40;99.90;;;;;;4997529;28;20246;-68
2022/03/01 10:05:44;;;;;;;30.97;9.27;;;8.40;99.90;;;;;;5001492;28;20205;-68
2022/03/01 10:08:24;;;;;;;27.80;9.40;;;8.50;99.90;;;;;;5017774;28;20214;-72
2022/03/01 10:10:53;;;;;;;24.30;8.43;;;8.60;99.90;;;;;;5007509;28;20190;-74
2022/03/01 10:13:28;;;;;;;23.97;9.10;;;8.50;99.90;;;;;;4999849;28;20166;-74
2022/03/01 10:16:04;;;;;;;27.60;8.73;;;8.60;99.90;;;;;;5020795;28;20184;-75
2022/03/01 10:18:39;;;;;;;23.30;8.63;;;8.60;99.90;;;;;;5033474;28;20200;-76
2022/03/01 10:21:13;;;;;;;20.03;8.63;;;8.60;99.90;;;;;;5020467;28;20188;-75
2022/03/01 10:23:46;;;;;;;24.67;8.97;;;8.70;99.90;;;;;;5012887;28;20178;-75
2022/03/01 10:26:15;;;;;;;25.60;8.83;;;8.70;99.90;;;;;;5012841;28;20218;-75
2022/03/01 10:28:43;;;;;;;28.00;9.47;;;8.90;99.90;;;;;;5013714;28;20167;-74
2022/03/01 10:31:14;;;;;;;20.90;8.17;;;8.30;99.90;;;;;;5012561;28;20236;-76
2022/03/01 10:33:54;;;;;;;24.87;8.53;;;8.80;99.90;;;;;;5012762;28;20175;-74
2022/03/01 10:36:22;;;;;;;21.63;8.23;;;8.60;99.90;;;;;;5013693;28;20178;-74
2022/03/01 10:39:01;;;;;;;26.63;8.23;;;8.60;99.90;;;;;;5013550;28;20174;-74
2022/03/01 10:41:32;;;;;;;23.57;8.53;;;8.60;99.90;;;;;;5013773;28;20182;-75
2022/03/01 10:43:59;;;;;;;25.33;8.23;;;8.60;99.90;;;;;;5013703;28;20182;-75
2022/03/01 10:46:37;;;;;;;21.90;8.20;;;8.60;99.90;;;;;;5013654;28;20220;-75
2022/03/01 10:49:12;;;;;;;27.63;8.37;;;8.60;99.90;;;;;;5013694;28;20190;-74
2022/03/01 10:51:59;;;;;;;23.47;8.57;;;8.60;99.90;;;;;;5013626;28;20186;-75
2022/03/01 10:54:27;;;;;;;33.33;8.43;;;8.60;99.90;;;;;;5013580;28;20190;-75
2022/03/01 10:56:55;;;;;;;30.47;8.10;;;;;;;;;;5013661;28;20957;-74
2022/03/01 10:59:28;;;;;;;20.77;8.00;;;8.60;99.90;;;;;;5013562;28;20179;-74
2022/03/01 11:01:54;;;;;;;28.50;7.93;;;8.50;99.90;;;;;;5013335;28;20564;-74
2022/03/01 11:04:25;;;;;;;24.40;8.50;;;8.90;99.90;;;;;;5013236;28;20202;-74
2022/03/01 11:06:56;;;;;;;32.10;8.40;;;8.70;99.90;;;;;;5011885;28;20210;-74
2022/03/01 11:09:25;;;;;;;20.17;7.53;;;8.60;99.90;;;;;;5013224;28;20233;-74
2022/03/01 11:11:52;;;;;;;25.20;8.27;;;8.60;99.90;;;;;;5010800;28;20194;-74
2022/03/01 11:14:24;;;;;;;22.27;7.63;;;8.50;99.90;;;;;;5022772;28;20170;-74
2022/03/01 11:17:01;;;;;;;32.00;9.13;;;8.60;99.90;;;;;;5031536;28;20184;-74
2022/03/01 11:19:52;;;;;;;23.93;8.77;;;8.60;99.90;;;;;;5013676;28;20186;-74
2022/03/01 11:22:23;;;;;;;27.83;9.20;;;8.60;99.90;;;;;;5013038;28;20224;-74
2022/03/01 11:24:49;;;;;;;26.17;8.50;;;8.70;99.90;;;;;;5012960;28;20167;-75
2022/03/01 11:27:21;;;;;;;22.80;8.50;;;8.70;99.90;;;;;;5012700;28;20210;-74
2022/03/01 11:29:47;;;;;;;20.60;8.47;;;8.60;99.90;;;;;;5016870;28;20198;-74
2022/03/01 11:32:15;;;;;;;24.27;8.70;;;8.60;99.90;;;;;;5032751;28;20174;-75
2022/03/01 11:34:42;;;;;;;27.47;8.07;;;8.70;99.90;;;;;;5032611;28;20235;-74
2022/03/01 11:37:19;;;;;;;22.97;8.50;;;8.70;99.90;;;;;;5032658;28;20169;-75
2022/03/01 11:39:55;;;;;;;26.10;8.47;;;8.70;99.90;;;;;;5031224;28;20268;-75
2022/03/01 11:42:21;;;;;;;20.93;8.10;;;8.70;99.90;;;;;;5032465;28;20177;-75
2022/03/01 11:44:53;;;;;;;20.10;8.53;;;8.80;99.90;;;;;;5032342;28;20189;-75
2022/03/01 11:47:30;;;;;;;22.33;8.30;;;8.80;99.90;;;;;;5032360;28;20202;-75
2022/03/01 11:49:56;;;;;;;25.27;8.13;;;8.80;99.90;;;;;;5032370;28;20525;-75
2022/03/01 11:52:26;;;;;;;23.40;8.93;;;8.80;99.90;;;;;;5032224;28;20173;-75
2022/03/01 11:54:57;;;;;;;25.87;8.40;;;10.00;99.90;;;;;;5032295;28;20539;-75
2022/03/01 11:57:29;;;;;;;24.50;8.53;;;8.90;99.90;;;;;;5032104;28;20649;-74
2022/03/01 11:59:59;;;;;;;26.87;7.87;;;8.90;99.90;;;;;;5032115;28;20261;-74
2022/03/01 12:02:26;;;;;;;27.23;8.57;;;8.80;99.90;;;;;;5031960;28;20304;-75
2022/03/01 12:04:57;;;;;;;25.23;8.90;;;8.80;99.90;;;;;;5032160;28;20170;-75
2022/03/01 12:07:25;;;;;;;23.37;8.57;;;8.90;99.90;;;;;;5018800;28;20297;-75
2022/03/01 12:09:59;;;;;;;25.27;8.60;;;8.90;99.90;;;;;;5012256;28;20225;-75
2022/03/01 12:12:53;;;;;;;34.57;8.97;;;8.90;99.90;;;;;;5012023;28;20265;-74
2022/03/01 12:15:33;;;;;;;22.60;8.47;;;8.60;99.90;;;;;;5011223;28;20261;-75
2022/03/01 12:18:15;;;;;;;28.27;8.23;;;8.80;99.90;;;;;;5012331;28;20175;-75
2022/03/01 12:20:44;;;;;;;17.67;7.13;;;8.80;99.90;;;;;;5011994;28;20185;-75
2022/03/01 12:23:11;;;;;;;14.30;6.70;;;8.90;99.90;;;;;;5012057;28;20179;-75
2022/03/01 12:25:39;;;;;;;19.27;6.77;;;8.80;99.90;;;;;;5011058;28;20198;-74
2022/03/01 12:28:08;;;;;;;15.13;6.17;;;8.90;99.90;;;;;;5010875;28;20236;-75
2022/03/01 12:30:41;;;;;;;17.63;6.13;;;8.60;99.90;;;;;;5011812;28;20240;-74
2022/03/01 12:33:12;;;;;;;14.80;6.20;;;8.80;99.90;;;;;;5011978;28;20167;-75
2022/03/01 12:35:38;;;;;;;15.67;5.47;;;8.80;99.90;;;;;;5011724;28;20629;-74
2022/03/01 12:38:12;;;;;;;16.80;5.33;;;8.90;99.90;;;;;;5011799;28;20229;-75
2022/03/01 12:40:39;;;;;;;11.33;4.97;;;8.70;99.90;;;;;;5011685;28;20170;-75
2022/03/01 12:43:08;;;;;;;11.20;5.10;;;8.70;99.90;;;;;;5010539;28;20174;-76
2022/03/01 12:45:45;;;;;;;13.97;5.00;;;8.80;99.90;;;;;;5011623;28;20603;-75
2022/03/01 12:48:16;;;;;;;12.80;5.10;;;8.70;99.90;;;;;;5011903;28;20178;-75